Wyalusing, Pennsylvania
Current Conditions -  °F | °C
As of 10:54 PM on Sunday 25 Jan 2015 (Local Time) from KAVP Reporting Station
Overcast Overcast  
Wind Chill: -11°   Ceiling: 6000
Heat Index: -6°   Visibility: 10mi
Dew Point: -14°   Wind: 8mph
Humidity: 53%   Direction: 10°N
Pressure: 29.97"   Gusts: NA
Location:  41.67°N, 76.26°W
Report Text: KAVP 260354Z AUTO 01007KT 10SM FEW047 OVC060 M06/M14 A2997 RMK AO2 SLP157 T10611144
Loading
Personal Weather Stations






























Interactive Weather Map New forecast layout! Learn more

10-Day Weather Forecast

Advertisements
Track Severe Weather on mobile